Time;durP1;ratioP1;P1;durP2;ratioP2;P2;SDS_P1;SDS_P2;PMS_P1;PMS_P2;Temp;Humidity;BMP_temperature;BMP_pressure;BME280_temperature;BME280_humidity;BME280_pressure;Samples;Min_cycle;Max_cycle;Signal;HPM_P1;HPM_P2
2023/07/15 00:01:27;;;;;;;6.88;4.85;;;20.50;99.90;;;;;;5091793;28;20106;-64
2023/07/15 00:03:54;;;;;;;7.03;4.40;;;20.50;99.90;;;;;;5092882;28;20048;-64
2023/07/15 00:06:23;;;;;;;6.57;4.82;;;20.60;99.90;;;;;;5092219;28;20052;-64
2023/07/15 00:08:50;;;;;;;5.18;4.20;;;20.60;99.90;;;;;;5092337;28;20449;-64
2023/07/15 00:11:27;;;;;;;5.18;4.10;;;20.60;99.90;;;;;;5092479;28;20411;-64
2023/07/15 00:13:54;;;;;;;6.30;4.40;;;20.50;99.90;;;;;;5092786;28;20062;-64
2023/07/15 00:16:21;;;;;;;5.07;4.40;;;20.60;99.90;;;;;;5092447;28;20044;-65
2023/07/15 00:18:47;;;;;;;5.93;4.43;;;20.60;99.90;;;;;;5092483;28;20052;-65
2023/07/15 00:21:22;;;;;;;6.72;4.13;;;20.50;99.90;;;;;;5092233;28;20109;-64
2023/07/15 00:23:57;;;;;;;5.82;4.75;;;20.60;99.90;;;;;;5092650;28;20059;-64
2023/07/15 00:26:29;;;;;;;9.85;3.92;;;20.50;99.90;;;;;;5092451;28;20430;-64
2023/07/15 00:28:56;;;;;;;7.40;4.10;;;20.60;99.90;;;;;;5092117;28;20097;-65
2023/07/15 00:31:23;;;;;;;5.85;4.18;;;20.60;99.90;;;;;;5092490;28;20051;-64
2023/07/15 00:33:50;;;;;;;6.13;4.20;;;20.60;99.90;;;;;;5092358;28;20059;-64
2023/07/15 00:36:17;;;;;;;6.97;4.85;;;20.60;99.90;;;;;;5091497;28;20109;-64
2023/07/15 00:38:44;;;;;;;6.78;4.30;;;20.60;99.90;;;;;;5091880;28;20048;-64
2023/07/15 00:41:23;;;;;;;6.60;3.83;;;20.60;99.90;;;;;;5092282;28;20044;-65
2023/07/15 00:43:56;;;;;;;7.35;4.40;;;20.60;99.90;;;;;;5092025;28;20387;-64
2023/07/15 00:46:22;;;;;;;5.18;4.03;;;20.60;99.90;;;;;;5092075;28;20105;-64
2023/07/15 00:49:00;;;;;;;6.43;4.28;;;20.60;99.90;;;;;;5091575;28;20064;-64
2023/07/15 00:51:29;;;;;;;7.68;4.20;;;20.60;99.90;;;;;;5092345;28;20052;-64
2023/07/15 00:53:55;;;;;;;6.85;4.15;;;20.60;99.90;;;;;;5092276;28;20047;-65
2023/07/15 00:56:23;;;;;;;4.85;3.85;;;20.60;99.90;;;;;;5091954;28;20059;-64
2023/07/15 00:58:50;;;;;;;6.00;4.25;;;20.60;99.90;;;;;;5091983;28;20040;-64
2023/07/15 01:01:17;;;;;;;5.93;3.70;;;20.70;99.90;;;;;;5092453;28;20458;-64
2023/07/15 01:03:46;;;;;;;6.63;3.85;;;20.70;99.90;;;;;;5091837;28;20059;-65
2023/07/15 01:06:13;;;;;;;5.72;3.67;;;20.80;99.90;;;;;;5091574;28;20506;-64
2023/07/15 01:08:39;;;;;;;4.90;3.92;;;20.80;99.90;;;;;;5091408;28;20488;-65
2023/07/15 01:11:06;;;;;;;5.28;3.75;;;20.80;99.90;;;;;;5092233;28;20052;-64
2023/07/15 01:13:34;;;;;;;6.38;4.78;;;20.80;99.90;;;;;;5095034;28;20048;-65
2023/07/15 01:16:00;;;;;;;4.78;3.75;;;20.90;99.90;;;;;;5095941;28;20056;-64
2023/07/15 01:18:27;;;;;;;5.43;3.80;;;20.90;99.90;;;;;;5095716;28;20112;-65
2023/07/15 01:20:57;;;;;;;6.18;3.78;;;21.00;99.90;;;;;;5095594;28;20396;-64
2023/07/15 01:23:27;;;;;;;6.45;4.00;;;21.00;99.90;;;;;;5095793;28;20055;-65
2023/07/15 01:25:54;;;;;;;5.07;3.67;;;21.00;99.90;;;;;;5095578;28;20074;-65
2023/07/15 01:28:20;;;;;;;6.03;4.38;;;21.00;99.90;;;;;;5095107;28;20486;-66
2023/07/15 01:30:47;;;;;;;6.45;3.60;;;21.10;99.90;;;;;;5095928;28;20051;-64
2023/07/15 01:33:16;;;;;;;5.68;4.07;;;21.10;99.90;;;;;;5095653;28;20044;-64
2023/07/15 01:35:49;;;;;;;5.05;3.63;;;21.10;99.90;;;;;;5095000;28;20074;-65
2023/07/15 01:38:15;;;;;;;5.55;3.53;;;21.10;99.90;;;;;;5095349;28;20043;-64
2023/07/15 01:40:42;;;;;;;5.10;3.65;;;21.10;99.90;;;;;;5095982;28;20493;-64
2023/07/15 01:43:09;;;;;;;5.80;3.55;;;21.10;99.90;;;;;;5095585;28;20113;-64
2023/07/15 01:45:37;;;;;;;4.72;3.60;;;21.10;99.90;;;;;;5095550;28;20051;-65
2023/07/15 01:48:04;;;;;;;4.65;3.47;;;21.10;99.90;;;;;;5094911;28;20081;-65
2023/07/15 01:50:31;;;;;;;5.28;3.40;;;21.10;99.90;;;;;;5095659;28;20059;-65
2023/07/15 01:52:58;;;;;;;6.47;3.63;;;21.00;99.90;;;;;;5095196;28;20059;-64
2023/07/15 01:55:24;;;;;;;6.97;3.40;;;21.10;99.90;;;;;;5095298;28;20399;-64
2023/07/15 01:57:50;;;;;;;6.05;3.40;;;21.10;99.90;;;;;;5094593;28;20448;-64
2023/07/15 02:00:17;;;;;;;6.28;3.88;;;21.20;99.90;;;;;;5095182;28;20048;-64
2023/07/15 02:02:44;;;;;;;9.48;4.13;;;21.20;99.90;;;;;;5095226;28;20076;-64
2023/07/15 02:05:10;;;;;;;5.53;3.38;;;21.30;99.90;;;;;;5095015;28;20056;-65
2023/07/15 02:07:36;;;;;;;4.32;3.67;;;21.40;99.90;;;;;;5094480;28;20109;-65
2023/07/15 02:10:03;;;;;;;4.25;3.42;;;21.40;99.90;;;;;;5095367;28;20059;-64
2023/07/15 02:12:29;;;;;;;6.97;3.47;;;21.40;99.90;;;;;;5094898;28;20036;-64
2023/07/15 02:14:55;;;;;;;5.95;3.30;;;21.50;99.90;;;;;;5094867;28;20048;-65
2023/07/15 02:17:22;;;;;;;6.65;2.90;;;21.50;99.90;;;;;;5094584;28;20101;-64
2023/07/15 02:19:49;;;;;;;5.35;3.50;;;21.50;99.90;;;;;;5094105;28;20435;-65
2023/07/15 02:22:16;;;;;;;5.00;3.50;;;21.50;99.90;;;;;;5094672;28;20094;-64
2023/07/15 02:24:42;;;;;;;8.02;3.95;;;21.50;99.90;;;;;;5076058;28;20522;-65
2023/07/15 02:27:08;;;;;;;6.22;3.40;;;21.40;99.90;;;;;;5094466;28;20113;-64
2023/07/15 02:29:34;;;;;;;6.07;3.38;;;21.40;99.90;;;;;;5094837;28;20105;-64
2023/07/15 02:32:02;;;;;;;4.80;3.65;;;21.30;99.90;;;;;;5095442;28;20356;-64
2023/07/15 02:34:29;;;;;;;5.38;2.95;;;21.30;99.90;;;;;;5094212;28;20381;-65
2023/07/15 02:36:55;;;;;;;4.30;3.33;;;21.30;99.90;;;;;;5093641;28;20040;-65
2023/07/15 02:39:21;;;;;;;4.72;3.53;;;21.30;99.90;;;;;;5094036;28;20101;-64
2023/07/15 02:41:48;;;;;;;5.45;3.13;;;21.20;99.90;;;;;;5094403;28;20040;-64
2023/07/15 02:44:15;;;;;;;5.22;3.38;;;21.20;99.90;;;;;;5094550;28;20055;-65
2023/07/15 02:46:41;;;;;;;6.95;3.40;;;21.10;99.90;;;;;;5093642;28;20040;-64
2023/07/15 02:49:08;;;;;;;5.60;3.25;;;21.10;99.90;;;;;;5093558;28;20052;-65
2023/07/15 02:51:34;;;;;;;5.90;3.08;;;21.10;99.90;;;;;;5094179;28;20044;-65
2023/07/15 02:54:01;;;;;;;8.25;3.40;;;21.00;99.90;;;;;;5094272;28;20495;-64
2023/07/15 02:56:28;;;;;;;8.07;3.60;;;21.00;99.90;;;;;;5093638;28;20444;-65
2023/07/15 02:58:54;;;;;;;5.78;3.03;;;20.90;99.90;;;;;;5093423;28;20384;-64
2023/07/15 03:01:21;;;;;;;6.80;4.18;;;20.90;99.90;;;;;;5093762;28;20542;-64
2023/07/15 03:03:47;;;;;;;5.30;3.55;;;20.90;99.90;;;;;;5092625;28;20059;-65
2023/07/15 03:06:13;;;;;;;5.38;3.53;;;20.80;99.90;;;;;;5082283;28;20052;-65
2023/07/15 03:08:40;;;;;;;6.32;3.33;;;20.70;99.90;;;;;;5083632;28;20092;-64
2023/07/15 03:11:11;;;;;;;5.72;3.58;;;20.70;99.90;;;;;;5081593;28;20056;-65
2023/07/15 03:13:37;;;;;;;6.88;3.83;;;20.70;99.90;;;;;;5080544;28;20036;-65
2023/07/15 03:16:04;;;;;;;6.72;3.53;;;20.60;99.90;;;;;;5085448;28;20131;-64
2023/07/15 03:18:30;;;;;;;5.85;3.35;;;20.60;99.90;;;;;;5082025;28;20426;-65
2023/07/15 03:20:57;;;;;;;4.25;3.40;;;20.50;99.90;;;;;;5079269;28;20041;-65
2023/07/15 03:23:23;;;;;;;6.15;3.00;;;20.50;99.90;;;;;;5091513;28;20400;-64
2023/07/15 03:25:49;;;;;;;6.47;3.92;;;20.50;99.90;;;;;;5093169;28;20056;-65
2023/07/15 03:28:15;;;;;;;6.13;3.13;;;20.40;99.90;;;;;;5092103;28;20435;-66
2023/07/15 03:30:42;;;;;;;4.65;3.47;;;20.40;99.90;;;;;;5093049;28;20423;-64
2023/07/15 03:33:08;;;;;;;5.05;3.47;;;20.30;99.90;;;;;;5093207;28;20048;-66
2023/07/15 03:35:34;;;;;;;4.60;3.40;;;20.20;99.90;;;;;;5092820;28;20052;-64
2023/07/15 03:38:00;;;;;;;5.47;3.53;;;20.20;99.90;;;;;;5092898;28;20051;-64
2023/07/15 03:40:27;;;;;;;5.45;3.20;;;20.20;99.90;;;;;;5093197;28;20147;-65
2023/07/15 03:42:53;;;;;;;3.90;3.38;;;20.20;99.90;;;;;;5093154;28;20056;-64
2023/07/15 03:45:20;;;;;;;5.10;3.35;;;20.20;99.90;;;;;;5092731;28;20468;-64
2023/07/15 03:47:46;;;;;;;6.13;3.72;;;20.10;99.90;;;;;;5092338;28;20128;-64
2023/07/15 03:50:12;;;;;;;6.63;3.83;;;20.10;99.90;;;;;;5092745;28;20079;-65
2023/07/15 03:52:38;;;;;;;5.30;3.63;;;20.00;99.90;;;;;;5092625;28;20048;-65
2023/07/15 03:55:05;;;;;;;5.80;3.40;;;20.00;99.90;;;;;;5092997;28;20055;-64
2023/07/15 03:57:32;;;;;;;5.40;3.33;;;20.00;99.90;;;;;;5092366;28;20056;-64
2023/07/15 03:59:59;;;;;;;6.88;3.50;;;20.00;99.90;;;;;;5092862;28;20051;-65
2023/07/15 04:02:25;;;;;;;4.80;3.50;;;20.00;99.90;;;;;;5092867;28;20103;-64
2023/07/15 04:04:51;;;;;;;6.28;3.72;;;20.00;99.90;;;;;;5092503;28;20054;-63
2023/07/15 04:07:19;;;;;;;7.47;3.80;;;20.00;99.90;;;;;;5092675;28;20044;-65
2023/07/15 04:09:45;;;;;;;5.55;3.42;;;20.00;99.90;;;;;;5092829;28;20464;-65
2023/07/15 04:12:11;;;;;;;7.43;3.72;;;20.00;99.90;;;;;;5092893;28;20117;-64
2023/07/15 04:14:37;;;;;;;6.25;3.63;;;20.00;99.90;;;;;;5092899;28;20076;-65
2023/07/15 04:17:04;;;;;;;5.18;3.75;;;20.00;99.90;;;;;;5092880;28;20044;-64
2023/07/15 04:19:30;;;;;;;5.88;3.85;;;20.00;99.90;;;;;;5092310;28;20109;-64
2023/07/15 04:21:56;;;;;;;4.70;4.07;;;20.00;99.90;;;;;;5092703;28;20113;-65
2023/07/15 04:24:23;;;;;;;8.15;3.60;;;20.00;99.90;;;;;;5075262;28;20060;-64
2023/07/15 04:26:49;;;;;;;7.57;3.80;;;20.00;99.90;;;;;;5057803;28;20460;-64
2023/07/15 04:29:15;;;;;;;5.18;3.60;;;20.00;99.90;;;;;;5074560;28;20048;-65
2023/07/15 04:31:42;;;;;;;7.07;3.53;;;20.00;99.90;;;;;;5058396;28;20086;-65
2023/07/15 04:34:08;;;;;;;6.97;3.47;;;20.00;99.90;;;;;;5074654;28;20416;-64
2023/07/15 04:36:34;;;;;;;4.85;4.15;;;20.00;99.90;;;;;;5061270;28;20036;-65
2023/07/15 04:39:01;;;;;;;4.20;3.70;;;20.00;99.90;;;;;;5054605;28;20477;-64
2023/07/15 04:41:27;;;;;;;4.55;3.67;;;20.00;99.90;;;;;;5054999;28;20083;-64
2023/07/15 04:43:53;;;;;;;4.30;3.50;;;20.00;99.90;;;;;;5054796;28;20078;-64
2023/07/15 04:46:20;;;;;;;5.80;3.70;;;20.00;99.90;;;;;;5037596;28;20048;-65
2023/07/15 04:48:46;;;;;;;4.85;3.95;;;20.10;99.90;;;;;;5054116;28;20052;-65
2023/07/15 04:51:12;;;;;;;5.55;4.20;;;20.10;99.90;;;;;;5038115;28;20060;-65
2023/07/15 04:53:43;;;;;;;8.80;4.07;;;20.20;99.90;;;;;;5054259;28;20102;-65
2023/07/15 04:56:10;;;;;;;4.78;3.47;;;20.20;99.90;;;;;;5039518;28;20048;-65
2023/07/15 04:58:36;;;;;;;4.85;3.85;;;20.30;99.90;;;;;;5074109;28;20048;-65
2023/07/15 05:01:03;;;;;;;5.28;3.83;;;20.90;99.90;;;;;;5074695;28;20052;-64
2023/07/15 05:03:30;;;;;;;5.63;3.85;;;21.70;99.90;;;;;;5074185;28;20056;-65
2023/07/15 05:06:02;;;;;;;5.75;4.03;;;22.70;99.90;;;;;;5073523;28;20537;-65
2023/07/15 05:08:28;;;;;;;5.65;3.80;;;23.30;99.90;;;;;;5051217;28;20123;-64
2023/07/15 05:10:55;;;;;;;6.65;3.60;;;24.20;99.90;;;;;;5051179;28;20389;-65
2023/07/15 05:13:21;;;;;;;6.65;4.00;;;24.80;99.90;;;;;;5051377;28;20052;-65
2023/07/15 05:15:47;;;;;;;4.68;3.53;;;25.10;99.90;;;;;;5051372;28;20049;-65
2023/07/15 05:18:15;;;;;;;6.68;3.90;;;25.50;99.90;;;;;;5070704;28;20102;-64
2023/07/15 05:20:41;;;;;;;5.05;3.63;;;25.90;99.80;;;;;;5071733;28;20048;-66
2023/07/15 05:23:08;;;;;;;4.53;3.80;;;26.10;99.40;;;;;;5071715;28;20060;-66
2023/07/15 05:25:34;;;;;;;7.70;4.15;;;26.50;99.20;;;;;;5071751;28;20063;-65
2023/07/15 05:28:00;;;;;;;6.90;3.85;;;26.70;98.90;;;;;;5088072;28;20092;-65
2023/07/15 05:30:27;;;;;;;6.18;3.22;;;27.10;98.80;;;;;;5091716;28;20110;-65
2023/07/15 05:32:53;;;;;;;7.05;3.55;;;27.00;98.40;;;;;;5091564;28;20056;-66
2023/07/15 05:35:19;;;;;;;5.15;3.42;;;27.20;98.30;;;;;;5073518;28;20044;-65
2023/07/15 05:37:46;;;;;;;8.07;3.67;;;27.40;97.90;;;;;;5075904;28;20525;-65
2023/07/15 05:40:12;;;;;;;5.80;3.70;;;27.20;98.00;;;;;;5071452;28;20518;-65
2023/07/15 05:42:43;;;;;;;4.55;3.30;;;26.50;98.40;;;;;;5071736;28;20045;-65
2023/07/15 05:45:10;;;;;;;4.28;3.10;;;26.00;98.70;;;;;;5071562;28;20048;-65
2023/07/15 05:47:40;;;;;;;5.35;3.42;;;25.30;99.40;;;;;;5084120;28;20040;-65
2023/07/15 05:50:08;;;;;;;5.60;4.38;;;24.90;99.90;;;;;;5091338;28;20056;-65
2023/07/15 05:52:34;;;;;;;4.88;3.28;;;24.60;99.90;;;;;;5091764;28;20055;-65
2023/07/15 05:55:01;;;;;;;4.90;4.10;;;24.50;99.90;;;;;;5091513;28;20048;-65
2023/07/15 05:57:27;;;;;;;5.60;3.67;;;24.30;99.90;;;;;;5078724;28;20052;-65
2023/07/15 05:59:54;;;;;;;6.15;3.40;;;24.20;99.90;;;;;;5072932;28;20048;-66
2023/07/15 06:02:20;;;;;;;5.80;3.65;;;24.00;99.90;;;;;;5056878;28;20063;-65
2023/07/15 06:04:46;;;;;;;4.75;3.58;;;23.90;99.90;;;;;;5074774;28;20457;-64
2023/07/15 06:07:12;;;;;;;4.95;3.05;;;23.80;99.90;;;;;;5084077;28;20048;-66
2023/07/15 06:09:39;;;;;;;4.50;3.60;;;24.10;99.90;;;;;;5094992;28;20044;-65
2023/07/15 06:12:05;;;;;;;6.85;4.18;;;24.30;99.90;;;;;;5095291;28;20054;-65
2023/07/15 06:14:31;;;;;;;6.68;3.45;;;24.80;99.90;;;;;;5070537;28;20103;-65
2023/07/15 06:16:58;;;;;;;5.95;3.42;;;25.10;99.90;;;;;;5063113;28;20378;-65
2023/07/15 06:19:24;;;;;;;6.05;3.97;;;25.60;99.90;;;;;;5074178;28;20091;-65
2023/07/15 06:21:51;;;;;;;5.43;3.60;;;26.00;99.90;;;;;;5074429;28;20053;-65
2023/07/15 06:24:17;;;;;;;4.63;3.33;;;26.20;99.90;;;;;;5074856;28;20049;-66
2023/07/15 06:26:44;;;;;;;5.10;3.60;;;25.90;99.90;;;;;;5079571;28;20487;-67
2023/07/15 06:29:10;;;;;;;6.30;3.58;;;25.60;99.90;;;;;;5094238;28;20537;-65
2023/07/15 06:31:36;;;;;;;5.10;3.40;;;25.40;99.90;;;;;;5094469;28;20056;-65
2023/07/15 06:34:02;;;;;;;5.80;3.42;;;25.20;99.90;;;;;;5094614;28;20048;-65
2023/07/15 06:36:29;;;;;;;5.78;3.78;;;25.40;99.90;;;;;;5093131;28;20071;-65
2023/07/15 06:38:55;;;;;;;6.43;3.47;;;26.40;99.90;;;;;;5078138;28;20045;-65
2023/07/15 06:41:21;;;;;;;7.22;3.85;;;27.00;99.60;;;;;;5071256;28;20076;-65
2023/07/15 06:43:47;;;;;;;7.95;3.80;;;27.10;99.40;;;;;;5068246;28;20041;-64
2023/07/15 06:46:14;;;;;;;5.50;3.95;;;27.00;99.50;;;;;;5068201;28;20049;-66
2023/07/15 06:48:40;;;;;;;4.90;3.80;;;27.10;99.40;;;;;;5064147;28;20051;-65
2023/07/15 06:51:06;;;;;;;4.05;3.50;;;26.80;99.20;;;;;;5059658;28;20053;-65
2023/07/15 06:53:33;;;;;;;5.30;3.65;;;26.70;99.50;;;;;;5064369;28;20419;-65
2023/07/15 06:56:00;;;;;;;5.20;3.97;;;26.70;99.80;;;;;;5062439;28;20111;-65
2023/07/15 06:58:26;;;;;;;5.95;3.97;;;26.40;99.90;;;;;;5085606;28;20048;-65
2023/07/15 07:00:53;;;;;;;4.13;3.65;;;25.90;99.90;;;;;;5056037;28;20072;-64
2023/07/15 07:03:19;;;;;;;6.18;4.45;;;25.90;99.90;;;;;;5048031;28;20128;-65
2023/07/15 07:05:45;;;;;;;6.85;3.83;;;25.80;99.90;;;;;;5061998;28;20123;-65
2023/07/15 07:08:11;;;;;;;7.53;3.70;;;26.00;99.90;;;;;;5066247;28;20044;-65
2023/07/15 07:10:38;;;;;;;5.50;3.65;;;26.30;99.90;;;;;;5063284;28;20450;-65
2023/07/15 07:13:10;;;;;;;6.82;3.70;;;26.50;99.90;;;;;;5062160;28;20045;-65
2023/07/15 07:15:36;;;;;;;5.93;3.65;;;26.70;99.90;;;;;;5062917;28;20369;-65
2023/07/15 07:18:03;;;;;;;4.47;3.55;;;26.90;99.90;;;;;;5045656;28;20049;-65
2023/07/15 07:20:29;;;;;;;6.53;3.53;;;26.70;99.90;;;;;;5063537;28;20036;-66
2023/07/15 07:22:55;;;;;;;5.93;3.22;;;26.70;99.90;;;;;;5063042;28;20088;-65
2023/07/15 07:25:21;;;;;;;6.80;3.50;;;26.60;99.90;;;;;;5061965;28;20131;-65
2023/07/15 07:27:48;;;;;;;4.72;3.35;;;26.50;99.90;;;;;;5064938;28;20041;-65
2023/07/15 07:30:14;;;;;;;6.35;3.28;;;26.60;99.90;;;;;;5062752;28;20068;-65
2023/07/15 07:32:40;;;;;;;6.43;3.50;;;26.60;99.90;;;;;;5061867;28;20056;-65
2023/07/15 07:35:07;;;;;;;5.78;3.70;;;26.70;99.90;;;;;;5060913;28;20059;-65
2023/07/15 07:37:33;;;;;;;4.45;3.20;;;27.10;99.90;;;;;;5082440;28;20036;-65
2023/07/15 07:39:59;;;;;;;4.53;3.30;;;26.80;99.90;;;;;;5081881;28;20056;-65
2023/07/15 07:42:26;;;;;;;5.78;3.30;;;26.80;99.90;;;;;;5081132;28;20048;-66
2023/07/15 07:44:54;;;;;;;6.53;3.08;;;26.40;99.90;;;;;;5081180;28;20052;-65
2023/07/15 07:47:20;;;;;;;5.70;3.50;;;26.30;99.90;;;;;;5085628;28;20071;-65
2023/07/15 07:49:46;;;;;;;3.90;2.92;;;26.10;99.90;;;;;;5072595;28;20419;-65
2023/07/15 07:52:13;;;;;;;3.95;3.30;;;26.30;99.90;;;;;;5080409;28;20067;-66
2023/07/15 07:54:40;;;;;;;4.70;2.90;;;26.30;99.90;;;;;;5076813;28;20048;-65
2023/07/15 07:57:06;;;;;;;6.30;3.13;;;26.30;99.90;;;;;;5063445;28;20364;-65
2023/07/15 07:59:32;;;;;;;5.32;3.22;;;26.40;99.90;;;;;;5078259;28;20491;-65
2023/07/15 08:01:59;;;;;;;4.60;3.00;;;26.40;99.90;;;;;;5084611;28;20040;-65
2023/07/15 08:04:25;;;;;;;13.52;3.70;;;26.40;99.90;;;;;;5092114;28;20056;-65
2023/07/15 08:06:51;;;;;;;5.90;3.20;;;26.90;99.90;;;;;;5086027;28;20059;-65
2023/07/15 08:09:21;;;;;;;4.68;3.22;;;26.80;99.90;;;;;;5092463;28;20044;-65
2023/07/15 08:11:47;;;;;;;5.57;2.70;;;27.10;99.90;;;;;;5092427;28;20456;-65
2023/07/15 08:14:18;;;;;;;5.65;3.50;;;26.90;99.90;;;;;;5092574;28;20039;-65
2023/07/15 08:16:50;;;;;;;4.82;3.13;;;27.00;99.90;;;;;;5074590;28;20032;-63
2023/07/15 08:19:17;;;;;;;3.75;2.85;;;27.10;99.90;;;;;;5073913;28;20094;-64
2023/07/15 08:21:43;;;;;;;4.25;2.65;;;26.80;99.90;;;;;;5055032;28;20063;-64
2023/07/15 08:24:10;;;;;;;3.92;2.00;;;26.80;99.90;;;;;;5080983;28;20048;-64
2023/07/15 08:26:36;;;;;;;3.88;1.92;;;26.80;99.90;;;;;;5084653;28;20410;-64
2023/07/15 08:29:03;;;;;;;3.40;2.30;;;26.90;99.90;;;;;;5093294;28;20048;-64
2023/07/15 08:31:30;;;;;;;3.35;1.90;;;27.30;99.90;;;;;;5075466;28;20389;-64
2023/07/15 08:33:56;;;;;;;3.90;2.15;;;27.60;99.90;;;;;;5076902;28;20113;-65
2023/07/15 08:36:23;;;;;;;4.60;2.33;;;27.80;99.90;;;;;;5070816;28;20114;-65
2023/07/15 08:38:50;;;;;;;3.47;2.25;;;27.70;99.90;;;;;;5059014;28;20060;-64
2023/07/15 08:41:22;;;;;;;4.82;2.40;;;27.80;99.90;;;;;;5035375;28;20107;-65
2023/07/15 08:43:48;;;;;;;;;;;27.70;99.90;;;;;;5053311;28;20049;-65
2023/07/15 08:46:29;;;;;;;3.28;2.40;;;27.40;99.90;;;;;;5053712;28;20011;-64
2023/07/15 08:48:56;;;;;;;5.70;2.80;;;27.30;99.90;;;;;;5063381;28;20058;-64
2023/07/15 08:51:27;;;;;;;3.28;2.80;;;27.10;99.90;;;;;;5052090;28;20056;-64
2023/07/15 08:53:53;;;;;;;3.85;2.80;;;26.90;99.90;;;;;;5052506;28;20044;-64
2023/07/15 08:56:21;;;;;;;4.43;3.25;;;26.80;99.90;;;;;;5061186;28;20461;-64
2023/07/15 08:58:48;;;;;;;4.65;2.90;;;26.80;99.90;;;;;;5072553;28;20049;-64
2023/07/15 09:01:15;;;;;;;5.20;2.90;;;26.70;99.90;;;;;;5072127;28;20040;-64
2023/07/15 09:03:42;;;;;;;5.53;3.10;;;26.70;99.90;;;;;;5023065;28;20045;-65
2023/07/15 09:06:08;;;;;;;5.03;2.83;;;26.70;99.90;;;;;;5054305;28;20369;-64
2023/07/15 09:08:35;;;;;;;3.97;3.00;;;26.80;99.90;;;;;;5062408;28;20055;-64
2023/07/15 09:11:03;;;;;;;4.60;3.25;;;26.70;99.90;;;;;;5060875;28;20049;-64
2023/07/15 09:13:32;;;;;;;4.85;3.70;;;26.70;99.90;;;;;;5063216;28;20090;-64
2023/07/15 09:16:00;;;;;;;4.65;3.45;;;26.70;99.90;;;;;;5072610;28;20052;-64
2023/07/15 09:18:26;;;;;;;6.80;3.65;;;26.90;99.90;;;;;;5072708;28;20048;-64
2023/07/15 09:21:16;;;;;;;5.60;3.40;;;26.70;99.90;;;;;;5060841;28;20040;-64
2023/07/15 09:23:45;;;;;;;5.65;3.20;;;26.60;99.90;;;;;;5066838;28;20230;-64
2023/07/15 09:26:13;;;;;;;6.13;3.70;;;26.60;99.90;;;;;;5035933;28;20072;-64
2023/07/15 09:28:44;;;;;;;4.70;3.70;;;26.60;99.90;;;;;;5058414;28;20041;-64
2023/07/15 09:31:10;;;;;;;4.38;3.90;;;26.60;99.90;;;;;;5052863;28;20040;-65
2023/07/15 09:33:39;;;;;;;6.05;3.58;;;26.40;99.90;;;;;;5073792;28;20056;-64
2023/07/15 09:36:06;;;;;;;5.25;3.30;;;26.80;99.90;;;;;;5061305;28;20095;-64
2023/07/15 09:38:36;;;;;;;4.00;3.47;;;26.90;99.90;;;;;;5091451;28;20036;-64
2023/07/15 09:41:08;;;;;;;5.40;3.65;;;26.70;99.90;;;;;;5095729;28;20040;-64
2023/07/15 09:43:47;;;;;;;5.80;3.00;;;26.70;99.90;;;;;;5096428;28;20093;-64
2023/07/15 09:46:18;;;;;;;4.13;3.13;;;26.90;99.90;;;;;;5088108;28;20134;-64
2023/07/15 09:48:47;;;;;;;6.82;3.45;;;27.40;99.90;;;;;;5087540;28;20093;-64
2023/07/15 09:51:18;;;;;;;3.17;2.88;;;27.80;99.90;;;;;;5084239;28;20055;-64
2023/07/15 09:53:49;;;;;;;6.50;2.92;;;27.90;99.90;;;;;;5085586;28;20123;-64
2023/07/15 09:56:36;;;;;;;2.90;2.53;;;28.20;99.90;;;;;;5066746;28;20045;-64
2023/07/15 09:59:18;;;;;;;3.95;2.58;;;28.20;99.90;;;;;;5088865;28;20113;-64
2023/07/15 10:02:06;;;;;;;3.58;2.22;;;28.10;99.90;;;;;;5085384;28;20118;-64
2023/07/15 10:04:41;;;;;;;3.95;2.10;;;28.20;99.90;;;;;;5061930;28;20405;-64
2023/07/15 10:07:07;;;;;;;3.08;2.30;;;28.40;99.90;;;;;;5065188;28;20476;-63
2023/07/15 10:09:35;;;;;;;5.22;2.50;;;28.50;99.90;;;;;;5095894;28;20357;-64
2023/07/15 10:12:02;;;;;;;3.95;2.00;;;28.70;99.90;;;;;;5094948;28;20044;-64
2023/07/15 10:14:33;;;;;;;3.22;2.00;;;28.50;99.90;;;;;;5096133;28;20078;-65
2023/07/15 10:17:15;;;;;;;3.00;1.85;;;28.50;99.90;;;;;;5095661;28;20169;-64
2023/07/15 10:19:47;;;;;;;4.65;1.92;;;28.30;99.40;;;;;;5095081;28;20060;-64
2023/07/15 10:22:17;;;;;;;3.03;2.15;;;28.40;99.70;;;;;;5075535;28;20054;-64
2023/07/15 10:24:55;;;;;;;2.75;2.20;;;28.30;99.30;;;;;;5068255;28;20074;-64
2023/07/15 10:27:21;;;;;;;;;;;28.30;99.40;;;;;;5066035;28;20064;-65
2023/07/15 10:30:15;;;;;;;2.92;1.80;;;28.10;98.90;;;;;;5085049;28;20352;-64
2023/07/15 10:33:11;;;;;;;3.95;1.85;;;28.10;98.80;;;;;;5088423;28;20048;-64
2023/07/15 10:35:40;;;;;;;3.20;1.98;;;28.00;99.00;;;;;;5079116;28;20048;-64
2023/07/15 10:38:27;;;;;;;6.43;2.25;;;27.90;99.10;;;;;;5095329;28;20040;-64
2023/07/15 10:40:57;;;;;;;3.22;1.90;;;28.20;99.20;;;;;;5095160;28;20052;-64
2023/07/15 10:43:35;;;;;;;3.45;1.85;;;28.20;99.20;;;;;;5077399;28;20048;-65
2023/07/15 10:46:15;;;;;;;3.75;1.77;;;28.10;99.20;;;;;;5094653;28;20113;-65
2023/07/15 10:48:42;;;;;;;2.92;1.90;;;27.90;99.10;;;;;;5061459;28;20108;-63
2023/07/15 10:51:11;;;;;;;2.60;1.92;;;27.90;99.40;;;;;;5094814;28;20456;-65
2023/07/15 10:53:38;;;;;;;2.92;1.92;;;27.90;99.50;;;;;;5094616;28;20048;-64
2023/07/15 10:56:06;;;;;;;4.10;1.88;;;27.80;99.50;;;;;;5094469;28;20060;-64
2023/07/15 10:58:34;;;;;;;3.22;2.03;;;27.70;99.70;;;;;;5094485;28;20056;-64
2023/07/15 11:01:08;;;;;;;2.63;1.83;;;27.60;99.80;;;;;;5094599;28;20052;-64
2023/07/15 11:03:42;;;;;;;3.97;2.10;;;27.60;99.90;;;;;;5094925;28;20059;-65
2023/07/15 11:06:10;;;;;;;3.72;2.08;;;27.60;99.90;;;;;;5077352;28;20071;-63
2023/07/15 11:08:38;;;;;;;3.65;2.20;;;27.60;99.90;;;;;;5094495;28;20135;-64
2023/07/15 11:11:12;;;;;;;4.05;2.22;;;27.60;99.90;;;;;;5071466;28;20077;-65
2023/07/15 11:13:40;;;;;;;3.90;2.42;;;27.60;99.90;;;;;;5074425;28;20052;-64
2023/07/15 11:16:07;;;;;;;4.10;2.38;;;27.60;99.90;;;;;;5091001;28;20044;-64
2023/07/15 11:18:34;;;;;;;2.92;2.10;;;27.60;99.90;;;;;;5088288;28;20044;-63
2023/07/15 11:21:01;;;;;;;2.50;1.90;;;27.70;99.90;;;;;;5088335;28;20044;-64
2023/07/15 11:23:28;;;;;;;3.42;1.90;;;27.60;99.90;;;;;;5085152;28;20055;-64
2023/07/15 11:25:59;;;;;;;4.13;2.00;;;27.40;99.90;;;;;;5094353;28;20047;-63
2023/07/15 11:28:26;;;;;;;3.40;2.10;;;27.40;99.90;;;;;;5053810;28;20049;-64
2023/07/15 11:30:53;;;;;;;4.20;2.30;;;27.20;99.90;;;;;;5088015;28;20831;-64
2023/07/15 11:33:20;;;;;;;4.78;2.00;;;27.30;99.90;;;;;;5079985;28;20044;-64
2023/07/15 11:35:46;;;;;;;2.67;2.03;;;27.30;99.90;;;;;;5073725;28;20048;-64
2023/07/15 11:38:13;;;;;;;4.35;2.08;;;27.30;99.90;;;;;;5072132;28;20070;-64
2023/07/15 11:40:53;;;;;;;3.35;2.03;;;27.40;99.90;;;;;;5094622;28;20048;-65
2023/07/15 11:43:23;;;;;;;5.68;2.33;;;27.40;99.90;;;;;;5093995;28;20456;-64
2023/07/15 11:45:53;;;;;;;3.05;2.20;;;27.30;99.90;;;;;;5076273;28;20121;-65
2023/07/15 11:48:28;;;;;;;4.03;2.22;;;27.10;99.90;;;;;;5093747;28;20055;-65
2023/07/15 11:51:07;;;;;;;5.10;2.00;;;27.20;99.90;;;;;;5076273;28;20543;-64
2023/07/15 11:53:35;;;;;;;3.80;2.17;;;27.40;99.90;;;;;;5094111;28;20044;-64
2023/07/15 11:56:05;;;;;;;4.53;2.38;;;27.30;99.90;;;;;;5093612;28;20108;-64
2023/07/15 11:58:40;;;;;;;2.60;2.03;;;27.20;99.90;;;;;;5075994;28;20040;-65
2023/07/15 12:01:11;;;;;;;5.25;2.30;;;27.00;99.90;;;;;;5093561;28;20109;-65
2023/07/15 12:03:37;;;;;;;4.53;2.20;;;27.10;99.90;;;;;;5093843;28;20048;-64
2023/07/15 12:06:24;;;;;;;4.80;2.40;;;27.10;99.90;;;;;;5093433;28;20052;-64
2023/07/15 12:09:10;;;;;;;5.75;2.63;;;27.30;99.90;;;;;;5093284;28;20056;-64
2023/07/15 12:11:45;;;;;;;4.57;2.40;;;27.40;99.90;;;;;;5076867;28;20048;-65
2023/07/15 12:14:15;;;;;;;3.90;2.20;;;27.50;99.90;;;;;;5075812;28;20077;-64
2023/07/15 12:16:47;;;;;;;3.40;2.50;;;27.60;99.90;;;;;;5092816;28;20358;-64
2023/07/15 12:19:17;;;;;;;3.75;2.40;;;27.70;99.90;;;;;;5068670;28;20048;-65
2023/07/15 12:21:46;;;;;;;3.92;2.40;;;27.60;99.90;;;;;;5093647;28;20059;-64
2023/07/15 12:24:12;;;;;;;4.43;2.53;;;27.80;99.90;;;;;;5075586;28;20398;-64
2023/07/15 12:26:39;;;;;;;5.25;2.40;;;27.90;99.90;;;;;;5092645;28;20270;-65
2023/07/15 12:29:07;;;;;;;4.53;2.25;;;28.20;99.90;;;;;;5074111;28;20055;-65
2023/07/15 12:31:34;;;;;;;3.80;2.40;;;28.20;99.80;;;;;;5057613;28;20066;-65
2023/07/15 12:34:02;;;;;;;4.18;2.50;;;28.10;99.30;;;;;;5092349;28;20043;-66
2023/07/15 12:36:28;;;;;;;3.28;2.38;;;28.10;99.40;;;;;;5091011;28;20063;-65
2023/07/15 12:38:55;;;;;;;3.92;2.15;;;28.30;99.60;;;;;;5074564;28;20266;-65
2023/07/15 12:41:22;;;;;;;3.70;2.50;;;28.40;98.80;;;;;;5092295;28;20052;-65
2023/07/15 12:43:48;;;;;;;3.75;2.40;;;28.50;99.00;;;;;;5091815;28;20044;-65
2023/07/15 12:46:14;;;;;;;4.32;2.70;;;28.40;98.80;;;;;;5091831;28;20396;-65
2023/07/15 12:48:41;;;;;;;4.13;2.33;;;28.40;99.10;;;;;;5088884;28;20089;-66
2023/07/15 12:51:07;;;;;;;6.25;2.55;;;28.50;99.00;;;;;;5082876;28;20060;-66
2023/07/15 12:53:33;;;;;;;3.42;2.33;;;28.60;98.80;;;;;;5079100;28;20094;-65